createdAt,value
2022-09-02T00:03:13.788Z,11.74
2022-09-02T00:08:15.951Z,11.67
2022-09-02T00:13:19.391Z,11.76
2022-09-02T00:18:20.372Z,11.69
2022-09-02T00:23:23.743Z,11.64
2022-09-02T00:28:27.953Z,11.60
2022-09-02T00:33:28.880Z,11.48
2022-09-02T00:38:33.736Z,11.40
2022-09-02T00:43:45.549Z,11.35
2022-09-02T00:48:50.743Z,11.43
2022-09-02T00:53:53.609Z,11.41
2022-09-02T00:58:56.266Z,11.40
2022-09-02T01:03:57.415Z,11.31
2022-09-02T01:09:04.219Z,11.32
2022-09-02T01:14:06.020Z,11.27
2022-09-02T01:19:11.898Z,11.22
2022-09-02T01:24:14.267Z,11.23
2022-09-02T01:29:16.457Z,11.15
2022-09-02T01:34:17.386Z,11.12
2022-09-02T01:39:19.349Z,11.06
2022-09-02T01:44:20.039Z,10.99
2022-09-02T01:49:24.050Z,10.93
2022-09-02T01:54:26.050Z,10.91
2022-09-02T01:59:26.734Z,10.91
2022-09-02T02:04:28.680Z,10.87
2022-09-02T02:09:32.417Z,10.86
2022-09-02T02:14:33.110Z,10.84
2022-09-02T02:19:34.308Z,10.89
2022-09-02T02:24:36.652Z,10.89
2022-09-02T02:29:37.280Z,10.74
2022-09-02T02:34:39.427Z,10.68
2022-09-02T02:39:43.286Z,10.63
2022-09-02T02:44:44.645Z,10.60
2022-09-02T02:49:46.349Z,10.55
2022-09-02T02:54:48.488Z,10.57
2022-09-02T02:59:49.251Z,10.51
2022-09-02T03:04:54.249Z,10.51
2022-09-02T03:09:57.235Z,10.47
2022-09-02T03:14:58.214Z,10.50
2022-09-02T03:19:59.786Z,10.44
2022-09-02T03:25:06.208Z,10.44
2022-09-02T03:30:12.762Z,10.42
2022-09-02T03:35:17.295Z,10.35
2022-09-02T03:40:21.927Z,10.37
2022-09-02T03:45:25.634Z,10.35
2022-09-02T03:50:30.516Z,10.36
2022-09-02T03:55:33.249Z,10.37
2022-09-02T04:00:35.071Z,10.35
2022-09-02T04:05:38.036Z,10.36
2022-09-02T04:10:40.169Z,10.22
2022-09-02T04:15:43.029Z,10.12
2022-09-02T04:20:44.923Z,10.20
2022-09-02T04:25:47.548Z,10.19
2022-09-02T04:30:50.355Z,10.14
2022-09-02T04:35:52.214Z,10.10
2022-09-02T04:40:55.230Z,10.14
2022-09-02T04:45:57.676Z,10.10
2022-09-02T04:50:58.865Z,10.12
2022-09-02T04:56:01.320Z,10.14
2022-09-02T05:01:07.104Z,10.13
2022-09-02T05:06:11.976Z,10.23
2022-09-02T05:11:18.449Z,10.24
2022-09-02T05:16:23.474Z,10.33
2022-09-02T05:21:24.462Z,10.40
2022-09-02T05:26:27.336Z,10.48
2022-09-02T05:31:29.051Z,10.57
2022-09-02T05:36:32.527Z,10.59
2022-09-02T05:41:34.771Z,10.74
2022-09-02T05:46:37.755Z,10.86
2022-09-02T05:51:42.558Z,10.99
2022-09-02T05:56:46.700Z,11.02
2022-09-02T06:01:49.274Z,11.16
2022-09-02T06:06:51.973Z,11.34
2022-09-02T06:11:57.183Z,11.44
2022-09-02T06:17:02.874Z,11.61
2022-09-02T06:22:13.147Z,11.71
2022-09-02T06:27:18.154Z,11.78
2022-09-02T06:32:21.768Z,11.96
2022-09-02T06:37:25.038Z,12.14
2022-09-02T06:42:27.579Z,12.30
2022-09-02T06:47:57.432Z,12.45
2022-09-02T06:52:59.393Z,12.52
2022-09-02T06:58:02.847Z,12.84
2022-09-02T07:03:23.393Z,12.91
2022-09-02T07:08:24.308Z,13.19
2022-09-02T07:13:26.747Z,13.36
2022-09-02T07:18:29.107Z,13.71
2022-09-02T07:23:30.063Z,13.95
2022-09-02T07:28:34.354Z,14.14
2022-09-02T07:33:36.869Z,14.35
2022-09-02T07:38:40.355Z,14.51
2022-09-02T07:43:42.701Z,14.80
2022-09-02T07:48:44.847Z,15.01
2022-09-02T07:53:46.068Z,15.22
2022-09-02T07:58:48.172Z,15.42
2022-09-02T08:03:49.601Z,15.63
2022-09-02T08:08:50.760Z,15.83
2022-09-02T08:13:53.380Z,16.02
2022-09-02T08:18:53.999Z,16.13
2022-09-02T08:23:54.705Z,16.34
2022-09-02T08:28:57.157Z,16.49
2022-09-02T08:33:57.910Z,16.74
2022-09-02T08:38:58.780Z,16.86
2022-09-02T08:44:02.893Z,17.03
2022-09-02T08:49:08.202Z,17.23
2022-09-02T08:54:12.297Z,17.42
2022-09-02T08:59:15.835Z,17.48
2022-09-02T09:04:25.306Z,17.65
2022-09-02T09:09:37.337Z,17.97
2022-09-02T09:14:46.246Z,18.09
2022-09-02T09:19:51.794Z,18.44
2022-09-02T09:24:52.593Z,18.85
2022-09-02T09:29:54.575Z,19.17
2022-09-02T09:35:01.549Z,19.64
2022-09-02T09:40:03.294Z,19.88
2022-09-02T09:45:22.051Z,20.15
2022-09-02T09:50:22.770Z,20.78
2022-09-02T09:55:25.187Z,21.57
2022-09-02T10:00:32.076Z,21.35
2022-09-02T10:05:36.039Z,21.51
2022-09-02T10:10:36.823Z,21.26
2022-09-02T10:15:54.665Z,21.00
2022-09-02T10:21:14.808Z,21.14
2022-09-02T10:26:26.985Z,21.52
2022-09-02T10:31:38.107Z,21.60
2022-09-02T10:36:54.484Z,21.86
2022-09-02T10:42:04.527Z,22.15
2022-09-02T10:47:11.762Z,22.49
2022-09-02T10:52:30.914Z,22.07
2022-09-02T10:57:35.273Z,22.05
2022-09-02T11:02:43.032Z,21.94
2022-09-02T11:07:48.633Z,21.91
2022-09-02T11:12:57.985Z,21.39
2022-09-02T11:18:06.555Z,21.48
2022-09-02T11:23:18.928Z,21.19
2022-09-02T11:28:34.125Z,21.31
2022-09-02T11:33:52.061Z,21.22
2022-09-02T11:38:56.539Z,21.00
2022-09-02T11:44:06.914Z,21.15
2022-09-02T11:49:55.502Z,21.64
2022-09-02T11:55:07.394Z,21.41
2022-09-02T12:00:29.211Z,21.52
2022-09-02T12:05:51.403Z,21.81
2022-09-02T12:11:02.171Z,21.74
2022-09-02T12:16:45.997Z,21.93
2022-09-02T12:22:21.824Z,21.47
2022-09-02T12:27:30.265Z,21.85
2022-09-02T12:33:12.587Z,22.72
2022-09-02T12:38:29.671Z,22.98
2022-09-02T12:43:36.458Z,22.43
2022-09-02T12:48:43.158Z,22.52
2022-09-02T12:53:47.963Z,22.36
2022-09-02T12:58:52.681Z,21.41
2022-09-02T13:04:09.215Z,21.18
2022-09-02T13:09:49.493Z,20.79
2022-09-02T13:15:04.102Z,20.55
2022-09-02T13:20:41.973Z,20.56
2022-09-02T13:26:01.927Z,20.71
2022-09-02T13:31:14.426Z,20.84
2022-09-02T13:36:27.455Z,20.61
2022-09-02T13:41:29.976Z,20.72
2022-09-02T13:46:32.334Z,20.23
2022-09-02T13:51:35.119Z,20.14
2022-09-02T13:56:35.944Z,20.38
2022-09-02T14:01:40.006Z,20.91
2022-09-02T14:06:44.268Z,21.96
2022-09-02T14:11:48.004Z,22.51
2022-09-02T14:16:50.107Z,22.29
2022-09-02T14:21:52.969Z,22.34
2022-09-02T14:26:55.944Z,22.92
2022-09-02T14:32:24.146Z,23.20
2022-09-02T14:37:26.278Z,22.57
2022-09-02T14:42:29.430Z,21.58
2022-09-02T14:47:37.729Z,21.55
2022-09-02T14:52:39.374Z,21.58
2022-09-02T14:57:42.057Z,21.09
2022-09-02T15:02:46.397Z,20.86
2022-09-02T15:07:47.232Z,20.72
2022-09-02T15:12:51.197Z,20.39
2022-09-02T15:17:53.136Z,20.33
2022-09-02T15:22:54.456Z,20.30
2022-09-02T15:27:55.105Z,21.14
2022-09-02T15:32:57.073Z,21.95
2022-09-02T15:37:57.668Z,21.70
2022-09-02T15:43:00.048Z,21.59
2022-09-02T15:48:02.037Z,21.93
2022-09-02T15:53:02.832Z,21.41
2022-09-02T15:58:03.566Z,20.98
2022-09-02T16:03:05.645Z,20.44
2022-09-02T16:08:06.386Z,20.43
2022-09-02T16:13:07.047Z,20.26
2022-09-02T16:18:09.036Z,20.30
2022-09-02T16:23:09.710Z,20.56
2022-09-02T16:28:10.456Z,20.41
2022-09-02T16:33:12.918Z,20.22
2022-09-02T16:38:13.568Z,20.42
2022-09-02T16:43:14.426Z,20.83
2022-09-02T16:48:18.975Z,20.83
2022-09-02T16:53:22.148Z,21.21
2022-09-02T16:58:22.882Z,23.05
2022-09-02T17:03:24.983Z,23.72
2022-09-02T17:08:25.749Z,24.19
2022-09-02T17:13:26.407Z,24.26
2022-09-02T17:18:28.376Z,24.05
2022-09-02T17:23:29.002Z,22.23
2022-09-02T17:28:29.656Z,20.72
2022-09-02T17:33:31.910Z,19.87
2022-09-02T17:38:32.582Z,19.10
2022-09-02T17:43:33.304Z,18.74
2022-09-02T17:48:45.138Z,18.39
2022-09-02T17:53:56.481Z,18.05
2022-09-02T17:59:08.406Z,17.71
2022-09-02T18:04:26.034Z,17.72
2022-09-02T18:09:28.972Z,17.53
2022-09-02T18:14:37.528Z,17.31
2022-09-02T18:19:48.010Z,17.33
2022-09-02T18:25:04.028Z,17.36
2022-09-02T18:30:07.953Z,17.34
2022-09-02T18:35:21.992Z,17.27
2022-09-02T18:40:30.472Z,17.14
2022-09-02T18:45:34.315Z,17.02
2022-09-02T18:50:51.513Z,16.93
2022-09-02T18:55:54.049Z,16.86
2022-09-02T19:00:59.737Z,16.83
2022-09-02T19:06:01.880Z,16.77
2022-09-02T19:11:08.735Z,16.59
2022-09-02T19:16:09.456Z,16.54
2022-09-02T19:21:14.551Z,16.57
2022-09-02T19:26:15.975Z,16.57
2022-09-02T19:31:20.843Z,16.60
2022-09-02T19:36:26.394Z,16.40
2022-09-02T19:41:32.007Z,16.41
2022-09-02T19:47:15.255Z,16.27
2022-09-02T19:51:54.892Z,16.24
2022-09-02T19:56:55.529Z,16.19
2022-09-02T20:01:57.386Z,16.12
2022-09-02T20:06:59.856Z,16.18
2022-09-02T20:12:00.629Z,16.01
2022-09-02T20:17:05.055Z,16.13
2022-09-02T20:22:07.042Z,16.11
2022-09-02T20:27:18.562Z,16.25
2022-09-02T20:32:34.223Z,16.15
2022-09-02T20:37:50.906Z,16.18
2022-09-02T20:43:33.221Z,16.12
2022-09-02T20:48:52.542Z,16.15
2022-09-02T20:54:10.333Z,16.05
2022-09-02T20:59:21.312Z,16.03
2022-09-02T21:04:31.665Z,16.06
2022-09-02T21:09:41.991Z,15.98
2022-09-02T21:14:47.216Z,15.92
2022-09-02T21:19:55.031Z,15.95
2022-09-02T21:25:00.890Z,15.88
2022-09-02T21:30:05.555Z,15.84
2022-09-02T21:35:11.699Z,15.73
2022-09-02T21:40:16.702Z,15.62
2022-09-02T21:45:24.138Z,15.54
2022-09-02T21:50:39.682Z,15.59
2022-09-02T21:55:55.011Z,15.58
2022-09-02T22:01:02.310Z,15.45
2022-09-02T22:06:10.031Z,15.41
2022-09-02T22:11:22.823Z,15.37
2022-09-02T22:16:32.777Z,15.29
2022-09-02T22:21:48.204Z,15.02
2022-09-02T22:26:53.761Z,14.77
2022-09-02T22:31:57.694Z,14.66
2022-09-02T22:37:06.355Z,14.40
2022-09-02T22:42:16.121Z,14.22
2022-09-02T22:47:35.882Z,14.10
2022-09-02T22:52:47.459Z,14.02
2022-09-02T22:57:59.511Z,13.90
2022-09-02T23:03:08.921Z,13.78
2022-09-02T23:08:11.304Z,13.67
2022-09-02T23:13:21.537Z,13.66
2022-09-02T23:18:29.623Z,13.57
2022-09-02T23:23:39.262Z,13.56
2022-09-02T23:28:58.275Z,13.59
2022-09-02T23:34:10.698Z,13.71
2022-09-02T23:39:27.803Z,13.77
2022-09-02T23:44:31.149Z,13.75
2022-09-02T23:49:40.178Z,13.69
2022-09-02T23:54:58.252Z,13.64
